sensor_id;sensor_type;location;lat;lon;timestamp;temperature;humidity
48936;DHT22;34745;52.276;10.528;2022-12-18T00:02:12;-4.90;51.50
48936;DHT22;34745;52.276;10.528;2022-12-18T00:04:39;-4.90;41.60
48936;DHT22;34745;52.276;10.528;2022-12-18T00:07:08;-4.90;38.50
48936;DHT22;34745;52.276;10.528;2022-12-18T00:09:35;-4.90;37.70
48936;DHT22;34745;52.276;10.528;2022-12-18T00:12:06;-5.00;38.10
48936;DHT22;34745;52.276;10.528;2022-12-18T00:14:41;-4.90;37.40
48936;DHT22;34745;52.276;10.528;2022-12-18T00:17:11;-5.00;37.50
48936;DHT22;34745;52.276;10.528;2022-12-18T00:19:38;-5.10;37.30
48936;DHT22;34745;52.276;10.528;2022-12-18T00:22:05;-5.00;39.10
48936;DHT22;34745;52.276;10.528;2022-12-18T00:24:34;-5.10;40.00
48936;DHT22;34745;52.276;10.528;2022-12-18T00:27:01;-5.10;43.40
48936;DHT22;34745;52.276;10.528;2022-12-18T00:29:28;-5.20;40.40
48936;DHT22;34745;52.276;10.528;2022-12-18T00:31:55;-5.10;41.10
48936;DHT22;34745;52.276;10.528;2022-12-18T00:34:22;-5.20;41.30
48936;DHT22;34745;52.276;10.528;2022-12-18T00:36:49;-5.10;37.60
48936;DHT22;34745;52.276;10.528;2022-12-18T00:39:16;-5.10;34.50
48936;DHT22;34745;52.276;10.528;2022-12-18T00:41:45;-5.30;33.00
48936;DHT22;34745;52.276;10.528;2022-12-18T00:44:31;-5.20;36.80
48936;DHT22;34745;52.276;10.528;2022-12-18T00:46:58;-5.30;36.60
48936;DHT22;34745;52.276;10.528;2022-12-18T00:49:26;-5.30;34.40
48936;DHT22;34745;52.276;10.528;2022-12-18T00:51:53;-5.20;31.60
48936;DHT22;34745;52.276;10.528;2022-12-18T00:54:20;-5.30;31.00
48936;DHT22;34745;52.276;10.528;2022-12-18T00:56:49;-5.30;29.90
48936;DHT22;34745;52.276;10.528;2022-12-18T00:59:16;-5.30;29.90
48936;DHT22;34745;52.276;10.528;2022-12-18T01:01:44;-5.10;31.20
48936;DHT22;34745;52.276;10.528;2022-12-18T01:04:11;-5.40;31.00
48936;DHT22;34745;52.276;10.528;2022-12-18T01:06:39;-5.40;32.50
48936;DHT22;34745;52.276;10.528;2022-12-18T01:09:06;-5.50;34.60
48936;DHT22;34745;52.276;10.528;2022-12-18T01:11:33;-5.50;35.20
48936;DHT22;34745;52.276;10.528;2022-12-18T01:14:02;-5.50;32.30
48936;DHT22;34745;52.276;10.528;2022-12-18T01:16:29;-5.60;34.00
48936;DHT22;34745;52.276;10.528;2022-12-18T01:18:56;-5.60;35.60
48936;DHT22;34745;52.276;10.528;2022-12-18T01:21:24;-5.60;35.80
48936;DHT22;34745;52.276;10.528;2022-12-18T01:23:53;-5.50;34.50
48936;DHT22;34745;52.276;10.528;2022-12-18T01:26:20;-5.70;34.60
48936;DHT22;34745;52.276;10.528;2022-12-18T01:28:48;-5.70;37.00
48936;DHT22;34745;52.276;10.528;2022-12-18T01:31:19;-5.80;35.10
48936;DHT22;34745;52.276;10.528;2022-12-18T01:33:48;-5.80;34.90
48936;DHT22;34745;52.276;10.528;2022-12-18T01:36:17;-5.80;38.50
48936;DHT22;34745;52.276;10.528;2022-12-18T01:38:46;-5.90;37.00
48936;DHT22;34745;52.276;10.528;2022-12-18T01:41:18;-5.90;39.00
48936;DHT22;34745;52.276;10.528;2022-12-18T01:43:49;-5.90;39.00
48936;DHT22;34745;52.276;10.528;2022-12-18T01:46:20;-6.00;42.60
48936;DHT22;34745;52.276;10.528;2022-12-18T01:48:50;-6.00;41.00
48936;DHT22;34745;52.276;10.528;2022-12-18T01:51:17;-6.00;44.20
48936;DHT22;34745;52.276;10.528;2022-12-18T01:53:45;-5.90;41.10
48936;DHT22;34745;52.276;10.528;2022-12-18T01:56:15;-5.90;38.20
48936;DHT22;34745;52.276;10.528;2022-12-18T01:58:50;-6.00;39.80
48936;DHT22;34745;52.276;10.528;2022-12-18T02:01:20;-6.00;35.00
48936;DHT22;34745;52.276;10.528;2022-12-18T02:03:48;-6.00;40.00
48936;DHT22;34745;52.276;10.528;2022-12-18T02:06:20;-6.00;36.30
48936;DHT22;34745;52.276;10.528;2022-12-18T02:08:57;-6.10;35.30
48936;DHT22;34745;52.276;10.528;2022-12-18T02:11:34;-6.00;38.70
48936;DHT22;34745;52.276;10.528;2022-12-18T02:14:15;-6.00;32.90
48936;DHT22;34745;52.276;10.528;2022-12-18T02:16:51;-6.00;32.30
48936;DHT22;34745;52.276;10.528;2022-12-18T02:19:39;-6.00;26.80
48936;DHT22;34745;52.276;10.528;2022-12-18T02:22:25;-6.10;28.50
48936;DHT22;34745;52.276;10.528;2022-12-18T02:25:00;-6.10;31.50
48936;DHT22;34745;52.276;10.528;2022-12-18T02:27:30;-6.10;33.50
48936;DHT22;34745;52.276;10.528;2022-12-18T02:30:00;-6.20;34.20
48936;DHT22;34745;52.276;10.528;2022-12-18T02:32:30;-6.20;37.60
48936;DHT22;34745;52.276;10.528;2022-12-18T02:35:01;-6.20;40.40
48936;DHT22;34745;52.276;10.528;2022-12-18T02:37:30;-6.20;37.20
48936;DHT22;34745;52.276;10.528;2022-12-18T02:39:59;-6.20;37.00
48936;DHT22;34745;52.276;10.528;2022-12-18T02:42:29;-6.20;35.10
48936;DHT22;34745;52.276;10.528;2022-12-18T02:44:56;-6.20;33.40
48936;DHT22;34745;52.276;10.528;2022-12-18T02:47:26;-6.10;33.50
48936;DHT22;34745;52.276;10.528;2022-12-18T02:50:02;-6.20;30.70
48936;DHT22;34745;52.276;10.528;2022-12-18T02:52:35;-6.10;26.80
48936;DHT22;34745;52.276;10.528;2022-12-18T02:55:17;-6.20;27.90
48936;DHT22;34745;52.276;10.528;2022-12-18T02:57:50;-6.10;33.30
48936;DHT22;34745;52.276;10.528;2022-12-18T03:00:23;-6.10;24.70
48936;DHT22;34745;52.276;10.528;2022-12-18T03:02:55;-6.00;33.10
48936;DHT22;34745;52.276;10.528;2022-12-18T03:05:30;-5.90;72.10
48936;DHT22;34745;52.276;10.528;2022-12-18T03:08:03;-5.80;62.50
48936;DHT22;34745;52.276;10.528;2022-12-18T03:10:33;-5.90;39.50
48936;DHT22;34745;52.276;10.528;2022-12-18T03:13:06;-6.00;29.90
48936;DHT22;34745;52.276;10.528;2022-12-18T03:15:38;-6.00;23.70
48936;DHT22;34745;52.276;10.528;2022-12-18T03:18:10;-6.10;20.40
48936;DHT22;34745;52.276;10.528;2022-12-18T03:20:39;-6.10;24.20
48936;DHT22;34745;52.276;10.528;2022-12-18T03:23:11;-6.10;27.20
48936;DHT22;34745;52.276;10.528;2022-12-18T03:25:41;-6.10;27.20
48936;DHT22;34745;52.276;10.528;2022-12-18T03:28:13;-6.00;28.80
48936;DHT22;34745;52.276;10.528;2022-12-18T03:30:43;-6.10;20.60
48936;DHT22;34745;52.276;10.528;2022-12-18T03:33:15;-6.10;21.50
48936;DHT22;34745;52.276;10.528;2022-12-18T03:35:45;-6.10;25.20
48936;DHT22;34745;52.276;10.528;2022-12-18T03:38:12;-6.00;24.60
48936;DHT22;34745;52.276;10.528;2022-12-18T03:40:49;-6.00;17.60
48936;DHT22;34745;52.276;10.528;2022-12-18T03:43:26;-6.00;15.60
48936;DHT22;34745;52.276;10.528;2022-12-18T03:46:01;-6.00;14.80
48936;DHT22;34745;52.276;10.528;2022-12-18T03:48:32;-6.00;12.50
48936;DHT22;34745;52.276;10.528;2022-12-18T03:51:07;-6.00;13.50
48936;DHT22;34745;52.276;10.528;2022-12-18T03:53:39;-5.90;12.50
48936;DHT22;34745;52.276;10.528;2022-12-18T03:56:10;-5.90;8.70
48936;DHT22;34745;52.276;10.528;2022-12-18T03:58:40;-6.00;6.60
48936;DHT22;34745;52.276;10.528;2022-12-18T04:01:10;-6.00;4.20
48936;DHT22;34745;52.276;10.528;2022-12-18T04:03:39;-6.10;9.20
48936;DHT22;34745;52.276;10.528;2022-12-18T04:06:09;-6.10;8.70
48936;DHT22;34745;52.276;10.528;2022-12-18T04:08:37;-6.10;11.80
48936;DHT22;34745;52.276;10.528;2022-12-18T04:11:05;-6.10;14.20
48936;DHT22;34745;52.276;10.528;2022-12-18T04:13:35;-6.10;12.40
48936;DHT22;34745;52.276;10.528;2022-12-18T04:16:05;-6.20;12.30
48936;DHT22;34745;52.276;10.528;2022-12-18T04:18:33;-6.20;13.50
48936;DHT22;34745;52.276;10.528;2022-12-18T04:21:00;-6.20;14.40
48936;DHT22;34745;52.276;10.528;2022-12-18T04:23:27;-6.20;16.40
48936;DHT22;34745;52.276;10.528;2022-12-18T04:25:55;-6.30;13.70
48936;DHT22;34745;52.276;10.528;2022-12-18T04:28:22;-6.30;15.50
48936;DHT22;34745;52.276;10.528;2022-12-18T04:30:49;-6.20;16.00
48936;DHT22;34745;52.276;10.528;2022-12-18T04:33:18;-6.30;13.30
48936;DHT22;34745;52.276;10.528;2022-12-18T04:35:46;-6.30;12.30
48936;DHT22;34745;52.276;10.528;2022-12-18T04:38:13;-6.30;9.70
48936;DHT22;34745;52.276;10.528;2022-12-18T04:40:40;-6.40;11.10
48936;DHT22;34745;52.276;10.528;2022-12-18T04:43:07;-6.40;14.20
48936;DHT22;34745;52.276;10.528;2022-12-18T04:45:34;-6.40;12.30
48936;DHT22;34745;52.276;10.528;2022-12-18T04:48:03;-6.50;13.60
48936;DHT22;34745;52.276;10.528;2022-12-18T04:50:31;-6.50;17.90
48936;DHT22;34745;52.276;10.528;2022-12-18T04:52:59;-6.40;17.50
48936;DHT22;34745;52.276;10.528;2022-12-18T04:55:26;-6.40;16.90
48936;DHT22;34745;52.276;10.528;2022-12-18T04:57:54;-6.40;8.20
48936;DHT22;34745;52.276;10.528;2022-12-18T05:00:21;-6.50;9.30
48936;DHT22;34745;52.276;10.528;2022-12-18T05:02:48;-6.50;11.00
48936;DHT22;34745;52.276;10.528;2022-12-18T05:05:16;-6.40;13.00
48936;DHT22;34745;52.276;10.528;2022-12-18T05:07:44;-6.40;9.20
48936;DHT22;34745;52.276;10.528;2022-12-18T05:10:11;-6.40;6.70
48936;DHT22;34745;52.276;10.528;2022-12-18T05:12:39;-6.40;1.90
48936;DHT22;34745;52.276;10.528;2022-12-18T05:15:27;-6.40;2.80
48936;DHT22;34745;52.276;10.528;2022-12-18T05:17:56;-6.40;1.90
48936;DHT22;34745;52.276;10.528;2022-12-18T05:20:23;-6.40;1.00
48936;DHT22;34745;52.276;10.528;2022-12-18T05:22:52;-6.40;2.70
48936;DHT22;34745;52.276;10.528;2022-12-18T05:25:19;-6.50;1.20
48936;DHT22;34745;52.276;10.528;2022-12-18T05:27:47;-6.50;5.80
48936;DHT22;34745;52.276;10.528;2022-12-18T05:30:15;-6.50;7.80
48936;DHT22;34745;52.276;10.528;2022-12-18T05:32:42;-6.40;8.10
48936;DHT22;34745;52.276;10.528;2022-12-18T05:35:10;-6.40;4.40
48936;DHT22;34745;52.276;10.528;2022-12-18T05:37:37;-6.40;3.60
48936;DHT22;34745;52.276;10.528;2022-12-18T05:40:11;-6.40;1.00
48936;DHT22;34745;52.276;10.528;2022-12-18T05:42:39;-6.50;1.40
48936;DHT22;34745;52.276;10.528;2022-12-18T05:45:07;-6.50;6.00
48936;DHT22;34745;52.276;10.528;2022-12-18T05:47:34;-6.50;6.60
48936;DHT22;34745;52.276;10.528;2022-12-18T05:50:01;-6.50;6.20
48936;DHT22;34745;52.276;10.528;2022-12-18T05:52:28;-6.50;8.00
48936;DHT22;34745;52.276;10.528;2022-12-18T05:54:55;-6.60;9.70
48936;DHT22;34745;52.276;10.528;2022-12-18T05:57:24;-6.50;12.40
48936;DHT22;34745;52.276;10.528;2022-12-18T05:59:51;-6.50;11.80
48936;DHT22;34745;52.276;10.528;2022-12-18T06:02:18;-6.50;11.60
48936;DHT22;34745;52.276;10.528;2022-12-18T06:04:48;-6.40;7.20
48936;DHT22;34745;52.276;10.528;2022-12-18T06:07:15;-6.50;2.60
48936;DHT22;34745;52.276;10.528;2022-12-18T06:09:42;-6.50;3.70
48936;DHT22;34745;52.276;10.528;2022-12-18T06:12:09;-6.50;3.70
48936;DHT22;34745;52.276;10.528;2022-12-18T06:14:39;-6.60;7.80
48936;DHT22;34745;52.276;10.528;2022-12-18T06:17:06;-6.60;6.00
48936;DHT22;34745;52.276;10.528;2022-12-18T06:19:33;-6.70;6.60
48936;DHT22;34745;52.276;10.528;2022-12-18T06:22:00;-6.70;6.40
48936;DHT22;34745;52.276;10.528;2022-12-18T06:24:27;-6.70;5.20
48936;DHT22;34745;52.276;10.528;2022-12-18T06:26:54;-6.70;3.90
48936;DHT22;34745;52.276;10.528;2022-12-18T06:29:22;-6.70;7.00
48936;DHT22;34745;52.276;10.528;2022-12-18T06:31:50;-6.70;5.10
48936;DHT22;34745;52.276;10.528;2022-12-18T06:34:17;-6.80;12.40
48936;DHT22;34745;52.276;10.528;2022-12-18T06:36:44;-6.80;7.10
48936;DHT22;34745;52.276;10.528;2022-12-18T06:39:12;-6.80;8.90
48936;DHT22;34745;52.276;10.528;2022-12-18T06:41:39;-6.80;8.80
48936;DHT22;34745;52.276;10.528;2022-12-18T06:44:06;-6.90;9.50
48936;DHT22;34745;52.276;10.528;2022-12-18T06:46:33;-6.80;11.10
48936;DHT22;34745;52.276;10.528;2022-12-18T06:49:02;-6.70;8.90
48936;DHT22;34745;52.276;10.528;2022-12-18T06:51:29;-6.70;5.50
48936;DHT22;34745;52.276;10.528;2022-12-18T06:53:56;-6.70;6.50
48936;DHT22;34745;52.276;10.528;2022-12-18T06:56:23;-6.70;6.60
48936;DHT22;34745;52.276;10.528;2022-12-18T06:58:50;-6.70;7.50
48936;DHT22;34745;52.276;10.528;2022-12-18T07:01:17;-6.70;4.00
48936;DHT22;34745;52.276;10.528;2022-12-18T07:03:45;-6.70;5.10
48936;DHT22;34745;52.276;10.528;2022-12-18T07:06:16;-6.60;5.40
48936;DHT22;34745;52.276;10.528;2022-12-18T07:08:44;-6.60;1.00
48936;DHT22;34745;52.276;10.528;2022-12-18T07:11:11;-6.60;1.00
48936;DHT22;34745;52.276;10.528;2022-12-18T07:13:39;-6.60;1.00
48936;DHT22;34745;52.276;10.528;2022-12-18T07:16:08;-6.60;1.00
48936;DHT22;34745;52.276;10.528;2022-12-18T07:18:46;-6.60;1.00
48936;DHT22;34745;52.276;10.528;2022-12-18T07:21:17;-6.70;1.00
48936;DHT22;34745;52.276;10.528;2022-12-18T07:23:44;-6.70;1.00
48936;DHT22;34745;52.276;10.528;2022-12-18T07:26:16;-6.50;1.00
48936;DHT22;34745;52.276;10.528;2022-12-18T07:28:43;-6.70;1.00
48936;DHT22;34745;52.276;10.528;2022-12-18T07:31:12;-6.70;1.40
48936;DHT22;34745;52.276;10.528;2022-12-18T07:33:40;-6.70;2.10
48936;DHT22;34745;52.276;10.528;2022-12-18T07:36:10;-6.70;2.90
48936;DHT22;34745;52.276;10.528;2022-12-18T07:38:39;-6.60;3.10
48936;DHT22;34745;52.276;10.528;2022-12-18T07:41:08;-6.60;1.00
48936;DHT22;34745;52.276;10.528;2022-12-18T07:43:35;-6.60;1.00
48936;DHT22;34745;52.276;10.528;2022-12-18T07:46:03;-6.60;1.00
48936;DHT22;34745;52.276;10.528;2022-12-18T07:48:32;-6.60;1.00
48936;DHT22;34745;52.276;10.528;2022-12-18T07:51:00;-6.60;1.00
48936;DHT22;34745;52.276;10.528;2022-12-18T07:53:28;-6.60;1.00
48936;DHT22;34745;52.276;10.528;2022-12-18T07:55:57;-6.70;1.00
48936;DHT22;34745;52.276;10.528;2022-12-18T07:58:48;-6.60;1.00
48936;DHT22;34745;52.276;10.528;2022-12-18T08:01:15;-6.60;1.00
48936;DHT22;34745;52.276;10.528;2022-12-18T08:03:43;-6.60;1.00
48936;DHT22;34745;52.276;10.528;2022-12-18T08:06:10;-6.60;1.00
48936;DHT22;34745;52.276;10.528;2022-12-18T08:08:37;-6.60;1.00
48936;DHT22;34745;52.276;10.528;2022-12-18T08:11:06;-6.50;1.00
48936;DHT22;34745;52.276;10.528;2022-12-18T08:13:33;-6.50;1.00
48936;DHT22;34745;52.276;10.528;2022-12-18T08:16:01;-6.50;1.00
48936;DHT22;34745;52.276;10.528;2022-12-18T08:18:31;-6.50;1.00
48936;DHT22;34745;52.276;10.528;2022-12-18T08:21:07;-6.40;1.00
48936;DHT22;34745;52.276;10.528;2022-12-18T08:23:35;-6.20;1.00
48936;DHT22;34745;52.276;10.528;2022-12-18T08:26:10;-6.20;1.00
48936;DHT22;34745;52.276;10.528;2022-12-18T08:28:37;-6.10;1.00
48936;DHT22;34745;52.276;10.528;2022-12-18T08:31:05;-6.10;1.00
48936;DHT22;34745;52.276;10.528;2022-12-18T08:33:33;-6.00;1.00
48936;DHT22;34745;52.276;10.528;2022-12-18T08:36:01;-5.90;1.00
48936;DHT22;34745;52.276;10.528;2022-12-18T08:38:29;-5.90;1.00
48936;DHT22;34745;52.276;10.528;2022-12-18T08:40:58;-5.80;1.00
48936;DHT22;34745;52.276;10.528;2022-12-18T08:43:27;-5.80;1.00
48936;DHT22;34745;52.276;10.528;2022-12-18T08:46:13;-5.70;1.00
48936;DHT22;34745;52.276;10.528;2022-12-18T08:48:41;-5.60;1.00
48936;DHT22;34745;52.276;10.528;2022-12-18T08:51:08;-5.60;1.00
48936;DHT22;34745;52.276;10.528;2022-12-18T08:53:37;-5.40;1.00
48936;DHT22;34745;52.276;10.528;2022-12-18T08:56:05;-5.40;1.00
48936;DHT22;34745;52.276;10.528;2022-12-18T08:58:34;-5.30;1.00
48936;DHT22;34745;52.276;10.528;2022-12-18T09:01:01;-5.20;1.00
48936;DHT22;34745;52.276;10.528;2022-12-18T09:03:29;-5.10;1.00
48936;DHT22;34745;52.276;10.528;2022-12-18T09:05:56;-5.20;1.00
48936;DHT22;34745;52.276;10.528;2022-12-18T09:08:23;-5.20;1.00
48936;DHT22;34745;52.276;10.528;2022-12-18T09:10:50;-5.10;1.00
48936;DHT22;34745;52.276;10.528;2022-12-18T09:13:18;-5.00;1.00
48936;DHT22;34745;52.276;10.528;2022-12-18T09:15:48;-4.90;1.00
48936;DHT22;34745;52.276;10.528;2022-12-18T09:18:18;-4.90;1.00
48936;DHT22;34745;52.276;10.528;2022-12-18T09:20:45;-5.00;1.00
48936;DHT22;34745;52.276;10.528;2022-12-18T09:23:13;-4.90;1.00
48936;DHT22;34745;52.276;10.528;2022-12-18T09:25:40;-4.80;1.00
48936;DHT22;34745;52.276;10.528;2022-12-18T09:28:11;-4.70;1.00
48936;DHT22;34745;52.276;10.528;2022-12-18T09:30:40;-4.60;1.00
48936;DHT22;34745;52.276;10.528;2022-12-18T09:33:08;-4.50;1.00
48936;DHT22;34745;52.276;10.528;2022-12-18T09:35:36;-4.40;1.00
48936;DHT22;34745;52.276;10.528;2022-12-18T09:38:03;-4.30;1.00
48936;DHT22;34745;52.276;10.528;2022-12-18T09:40:34;-4.30;1.00
48936;DHT22;34745;52.276;10.528;2022-12-18T09:43:05;-4.20;1.00
48936;DHT22;34745;52.276;10.528;2022-12-18T09:45:40;-4.10;1.00
48936;DHT22;34745;52.276;10.528;2022-12-18T09:48:15;-4.00;1.00
48936;DHT22;34745;52.276;10.528;2022-12-18T09:50:46;-3.90;1.00
48936;DHT22;34745;52.276;10.528;2022-12-18T09:53:18;-3.80;1.00
48936;DHT22;34745;52.276;10.528;2022-12-18T09:55:47;-3.70;1.00
48936;DHT22;34745;52.276;10.528;2022-12-18T09:58:19;-3.60;1.00
48936;DHT22;34745;52.276;10.528;2022-12-18T10:00:47;-3.50;1.00
48936;DHT22;34745;52.276;10.528;2022-12-18T10:03:16;-3.40;1.00
48936;DHT22;34745;52.276;10.528;2022-12-18T10:05:50;-3.30;1.00
48936;DHT22;34745;52.276;10.528;2022-12-18T10:08:26;-3.20;1.00
48936;DHT22;34745;52.276;10.528;2022-12-18T10:10:59;-2.90;1.00
48936;DHT22;34745;52.276;10.528;2022-12-18T10:13:33;-2.40;1.00
48936;DHT22;34745;52.276;10.528;2022-12-18T10:16:12;-2.10;1.00
48936;DHT22;34745;52.276;10.528;2022-12-18T10:19:10;-1.80;1.00
48936;DHT22;34745;52.276;10.528;2022-12-18T10:21:42;-1.50;1.00
48936;DHT22;34745;52.276;10.528;2022-12-18T10:24:18;-1.30;1.00
48936;DHT22;34745;52.276;10.528;2022-12-18T10:26:48;-1.00;1.00
48936;DHT22;34745;52.276;10.528;2022-12-18T10:29:16;-0.50;1.00
48936;DHT22;34745;52.276;10.528;2022-12-18T10:31:43;-0.20;1.00
48936;DHT22;34745;52.276;10.528;2022-12-18T10:34:13;-0.40;1.00
48936;DHT22;34745;52.276;10.528;2022-12-18T10:36:40;-0.80;1.00
48936;DHT22;34745;52.276;10.528;2022-12-18T10:39:18;-1.00;1.00
48936;DHT22;34745;52.276;10.528;2022-12-18T10:41:46;-0.70;1.00
48936;DHT22;34745;52.276;10.528;2022-12-18T10:44:17;-0.80;1.00
48936;DHT22;34745;52.276;10.528;2022-12-18T10:46:46;-0.90;1.00
48936;DHT22;34745;52.276;10.528;2022-12-18T10:49:26;-0.80;1.00
48936;DHT22;34745;52.276;10.528;2022-12-18T10:52:05;-0.90;1.00
48936;DHT22;34745;52.276;10.528;2022-12-18T10:54:35;-0.70;1.00
48936;DHT22;34745;52.276;10.528;2022-12-18T10:57:16;-0.70;1.00
48936;DHT22;34745;52.276;10.528;2022-12-18T10:59:51;-0.80;1.00
48936;DHT22;34745;52.276;10.528;2022-12-18T11:02:27;-0.70;1.00
48936;DHT22;34745;52.276;10.528;2022-12-18T11:04:56;-0.60;1.00
48936;DHT22;34745;52.276;10.528;2022-12-18T11:07:25;-0.60;1.00
48936;DHT22;34745;52.276;10.528;2022-12-18T11:10:00;-0.50;1.00
48936;DHT22;34745;52.276;10.528;2022-12-18T11:12:28;-0.50;1.00
48936;DHT22;34745;52.276;10.528;2022-12-18T11:14:56;-0.60;1.00
48936;DHT22;34745;52.276;10.528;2022-12-18T11:17:32;-0.70;1.00
48936;DHT22;34745;52.276;10.528;2022-12-18T11:20:04;-0.80;1.00
48936;DHT22;34745;52.276;10.528;2022-12-18T11:22:35;-0.60;1.00
48936;DHT22;34745;52.276;10.528;2022-12-18T11:25:05;-0.60;1.00
48936;DHT22;34745;52.276;10.528;2022-12-18T11:27:56;-0.40;1.00
48936;DHT22;34745;52.276;10.528;2022-12-18T11:30:26;-0.20;1.00
48936;DHT22;34745;52.276;10.528;2022-12-18T11:32:56;0.30;1.00
48936;DHT22;34745;52.276;10.528;2022-12-18T11:35:35;0.80;1.00
48936;DHT22;34745;52.276;10.528;2022-12-18T11:38:10;1.70;1.00
48936;DHT22;34745;52.276;10.528;2022-12-18T11:40:41;1.90;1.00
48936;DHT22;34745;52.276;10.528;2022-12-18T11:43:12;1.70;1.00
48936;DHT22;34745;52.276;10.528;2022-12-18T11:45:45;1.40;1.00
48936;DHT22;34745;52.276;10.528;2022-12-18T11:48:17;1.30;1.00
48936;DHT22;34745;52.276;10.528;2022-12-18T11:50:48;1.30;1.00
48936;DHT22;34745;52.276;10.528;2022-12-18T11:53:17;1.90;1.00
48936;DHT22;34745;52.276;10.528;2022-12-18T11:55:53;2.60;1.00
48936;DHT22;34745;52.276;10.528;2022-12-18T11:58:34;3.20;1.00
48936;DHT22;34745;52.276;10.528;2022-12-18T12:01:13;3.80;1.00
48936;DHT22;34745;52.276;10.528;2022-12-18T12:06:42;6.70;1.00
48936;DHT22;34745;52.276;10.528;2022-12-18T12:09:19;8.10;1.00
48936;DHT22;34745;52.276;10.528;2022-12-18T12:11:56;8.70;1.00
48936;DHT22;34745;52.276;10.528;2022-12-18T12:14:36;9.40;99.90
48936;DHT22;34745;52.276;10.528;2022-12-18T12:17:12;9.70;99.90
48936;DHT22;34745;52.276;10.528;2022-12-18T12:19:46;9.90;99.90
48936;DHT22;34745;52.276;10.528;2022-12-18T12:22:24;8.30;99.90
48936;DHT22;34745;52.276;10.528;2022-12-18T12:25:06;7.60;99.90
48936;DHT22;34745;52.276;10.528;2022-12-18T12:27:42;6.60;99.90
48936;DHT22;34745;52.276;10.528;2022-12-18T12:30:18;5.70;1.00
48936;DHT22;34745;52.276;10.528;2022-12-18T12:33:02;4.80;1.00
48936;DHT22;34745;52.276;10.528;2022-12-18T12:35:42;4.10;1.00
48936;DHT22;34745;52.276;10.528;2022-12-18T12:38:14;4.30;1.00
48936;DHT22;34745;52.276;10.528;2022-12-18T12:40:46;4.40;1.00
48936;DHT22;34745;52.276;10.528;2022-12-18T12:43:28;4.50;1.00
48936;DHT22;34745;52.276;10.528;2022-12-18T12:45:58;4.70;1.00
48936;DHT22;34745;52.276;10.528;2022-12-18T12:48:35;4.00;1.00
48936;DHT22;34745;52.276;10.528;2022-12-18T12:51:10;3.30;1.00
48936;DHT22;34745;52.276;10.528;2022-12-18T12:53:40;2.90;1.00
48936;DHT22;34745;52.276;10.528;2022-12-18T12:56:10;2.40;1.00
48936;DHT22;34745;52.276;10.528;2022-12-18T12:58:45;2.20;1.00
48936;DHT22;34745;52.276;10.528;2022-12-18T13:01:23;1.90;1.00
48936;DHT22;34745;52.276;10.528;2022-12-18T13:04:03;1.60;1.00
48936;DHT22;34745;52.276;10.528;2022-12-18T13:06:42;1.30;1.00
48936;DHT22;34745;52.276;10.528;2022-12-18T13:09:13;1.20;1.00
48936;DHT22;34745;52.276;10.528;2022-12-18T13:11:41;1.00;1.00
48936;DHT22;34745;52.276;10.528;2022-12-18T13:14:30;1.00;1.00
48936;DHT22;34745;52.276;10.528;2022-12-18T13:20:10;0.70;1.00
48936;DHT22;34745;52.276;10.528;2022-12-18T13:22:40;0.60;1.00
48936;DHT22;34745;52.276;10.528;2022-12-18T13:25:34;0.60;1.00
48936;DHT22;34745;52.276;10.528;2022-12-18T13:28:10;0.40;1.00
48936;DHT22;34745;52.276;10.528;2022-12-18T13:30:53;0.40;1.00
48936;DHT22;34745;52.276;10.528;2022-12-18T13:33:47;0.30;1.00
48936;DHT22;34745;52.276;10.528;2022-12-18T13:36:34;0.20;1.00
48936;DHT22;34745;52.276;10.528;2022-12-18T13:39:32;0.00;1.00
48936;DHT22;34745;52.276;10.528;2022-12-18T13:42:38;-0.10;1.00
48936;DHT22;34745;52.276;10.528;2022-12-18T13:45:43;-0.20;1.00
48936;DHT22;34745;52.276;10.528;2022-12-18T13:48:18;-0.20;1.00
48936;DHT22;34745;52.276;10.528;2022-12-18T13:50:49;-0.20;1.00
48936;DHT22;34745;52.276;10.528;2022-12-18T13:53:22;-0.30;1.00
48936;DHT22;34745;52.276;10.528;2022-12-18T13:55:51;-0.40;1.00
48936;DHT22;34745;52.276;10.528;2022-12-18T13:58:20;-0.50;1.00
48936;DHT22;34745;52.276;10.528;2022-12-18T14:00:48;-0.60;1.00
48936;DHT22;34745;52.276;10.528;2022-12-18T14:03:21;-0.80;1.00
48936;DHT22;34745;52.276;10.528;2022-12-18T14:05:54;-1.00;1.00
48936;DHT22;34745;52.276;10.528;2022-12-18T14:08:23;-1.10;1.00
48936;DHT22;34745;52.276;10.528;2022-12-18T14:10:51;-1.30;1.00
48936;DHT22;34745;52.276;10.528;2022-12-18T14:13:24;-1.30;1.00
48936;DHT22;34745;52.276;10.528;2022-12-18T14:15:54;-1.30;1.00
48936;DHT22;34745;52.276;10.528;2022-12-18T14:18:25;-1.40;1.00
48936;DHT22;34745;52.276;10.528;2022-12-18T14:20:54;-1.40;1.00
48936;DHT22;34745;52.276;10.528;2022-12-18T14:23:31;-1.50;1.00
48936;DHT22;34745;52.276;10.528;2022-12-18T14:25:58;-1.50;1.00
48936;DHT22;34745;52.276;10.528;2022-12-18T14:28:42;-1.60;1.00
48936;DHT22;34745;52.276;10.528;2022-12-18T14:31:17;-1.60;1.00
48936;DHT22;34745;52.276;10.528;2022-12-18T14:33:45;-1.60;1.00
48936;DHT22;34745;52.276;10.528;2022-12-18T14:36:16;-1.60;1.00
48936;DHT22;34745;52.276;10.528;2022-12-18T14:38:43;-1.60;1.00
48936;DHT22;34745;52.276;10.528;2022-12-18T14:41:18;-1.60;1.00
48936;DHT22;34745;52.276;10.528;2022-12-18T14:43:48;-1.60;1.00
48936;DHT22;34745;52.276;10.528;2022-12-18T14:46:30;-1.60;1.00
48936;DHT22;34745;52.276;10.528;2022-12-18T14:49:01;-1.70;1.00
48936;DHT22;34745;52.276;10.528;2022-12-18T14:51:30;-1.80;1.00
48936;DHT22;34745;52.276;10.528;2022-12-18T14:53:58;-1.80;1.00
48936;DHT22;34745;52.276;10.528;2022-12-18T14:56:29;-1.80;1.00
48936;DHT22;34745;52.276;10.528;2022-12-18T14:58:59;-1.80;1.00
48936;DHT22;34745;52.276;10.528;2022-12-18T15:01:29;-1.90;1.00
48936;DHT22;34745;52.276;10.528;2022-12-18T15:03:59;-1.90;1.00
48936;DHT22;34745;52.276;10.528;2022-12-18T15:06:29;-1.90;1.00
48936;DHT22;34745;52.276;10.528;2022-12-18T15:08:58;-2.00;1.00
48936;DHT22;34745;52.276;10.528;2022-12-18T15:11:33;-2.00;1.00
48936;DHT22;34745;52.276;10.528;2022-12-18T15:14:39;-2.00;1.00
48936;DHT22;34745;52.276;10.528;2022-12-18T15:17:16;-2.10;1.00
48936;DHT22;34745;52.276;10.528;2022-12-18T15:19:44;-2.10;1.00
48936;DHT22;34745;52.276;10.528;2022-12-18T15:22:25;-2.20;1.00
48936;DHT22;34745;52.276;10.528;2022-12-18T15:24:54;-2.20;1.00
48936;DHT22;34745;52.276;10.528;2022-12-18T15:27:24;-2.20;1.00
48936;DHT22;34745;52.276;10.528;2022-12-18T15:30:16;-2.20;1.00
48936;DHT22;34745;52.276;10.528;2022-12-18T15:32:44;-2.20;1.00
48936;DHT22;34745;52.276;10.528;2022-12-18T15:35:15;-2.20;1.00
48936;DHT22;34745;52.276;10.528;2022-12-18T15:37:42;-2.20;1.00
48936;DHT22;34745;52.276;10.528;2022-12-18T15:40:13;-2.10;1.00
48936;DHT22;34745;52.276;10.528;2022-12-18T15:42:43;-2.10;1.00
48936;DHT22;34745;52.276;10.528;2022-12-18T15:45:31;-2.10;1.00
48936;DHT22;34745;52.276;10.528;2022-12-18T15:47:58;-2.00;1.00
48936;DHT22;34745;52.276;10.528;2022-12-18T15:50:25;-2.00;1.00
48936;DHT22;34745;52.276;10.528;2022-12-18T15:52:54;-2.00;1.00
48936;DHT22;34745;52.276;10.528;2022-12-18T15:55:23;-2.00;1.00
48936;DHT22;34745;52.276;10.528;2022-12-18T15:58:10;-2.00;1.00
48936;DHT22;34745;52.276;10.528;2022-12-18T16:00:42;-2.10;1.00